Time;durP1;ratioP1;P1;durP2;ratioP2;P2;SDS_P1;SDS_P2;PMS_P1;PMS_P2;Temp;Humidity;BMP_temperature;BMP_pressure;BME280_temperature;BME280_humidity;BME280_pressure;Samples;Min_cycle;Max_cycle;Signal;HPM_P1;HPM_P2
2023/04/04 00:01:16;;;;;;;0.70;0.70;;;19.60;71.80;;;;;;5052045;28;20017;-71
2023/04/04 00:03:42;;;;;;;3.33;0.85;;;19.60;71.90;;;;;;5050824;28;20071;-71
2023/04/04 00:06:07;;;;;;;1.40;0.70;;;19.60;72.00;;;;;;5050960;28;20401;-71
2023/04/04 00:08:33;;;;;;;1.13;0.50;;;19.60;72.00;;;;;;5034160;28;20025;-71
2023/04/04 00:10:59;;;;;;;1.30;0.60;;;19.50;72.00;;;;;;5032184;28;20033;-71
2023/04/04 00:13:28;;;;;;;0.98;0.77;;;19.50;72.20;;;;;;5052327;28;20100;-71
2023/04/04 00:15:53;;;;;;;1.25;0.90;;;19.50;72.30;;;;;;5069723;28;20021;-71
2023/04/04 00:18:19;;;;;;;1.20;0.70;;;19.40;72.10;;;;;;5037488;28;20040;-71
2023/04/04 00:20:45;;;;;;;1.15;0.82;;;19.40;72.20;;;;;;5054171;28;20025;-71
2023/04/04 00:23:11;;;;;;;0.60;0.60;;;19.40;72.20;;;;;;5070558;28;20059;-71
2023/04/04 00:25:37;;;;;;;1.50;0.60;;;19.30;72.20;;;;;;5054115;28;20241;-71
2023/04/04 00:28:02;;;;;;;1.00;0.73;;;19.40;72.30;;;;;;5070687;28;20025;-71
2023/04/04 00:30:28;;;;;;;0.80;0.70;;;19.30;72.30;;;;;;5070709;28;20072;-71
2023/04/04 00:32:55;;;;;;;1.17;0.80;;;19.30;72.40;;;;;;5053835;28;20378;-71
2023/04/04 00:35:21;;;;;;;0.90;0.77;;;19.30;72.30;;;;;;5070422;28;20432;-71
2023/04/04 00:37:47;;;;;;;0.70;0.70;;;19.30;72.30;;;;;;5070246;28;20059;-71
2023/04/04 00:40:13;;;;;;;1.85;0.80;;;19.20;72.40;;;;;;5054128;28;20125;-71
2023/04/04 00:42:39;;;;;;;0.88;0.88;;;19.20;72.40;;;;;;5038496;28;20025;-72
2023/04/04 00:45:08;;;;;;;1.27;0.77;;;19.20;72.50;;;;;;5062668;28;20096;-71
2023/04/04 00:47:33;;;;;;;1.00;0.80;;;19.20;72.60;;;;;;5090837;28;20025;-71
2023/04/04 00:49:59;;;;;;;0.75;0.70;;;19.10;72.50;;;;;;5058100;28;20191;-71
2023/04/04 00:52:26;;;;;;;0.98;0.90;;;19.10;72.50;;;;;;5073790;28;20489;-71
2023/04/04 00:54:52;;;;;;;1.55;0.80;;;19.10;72.60;;;;;;5073729;28;20025;-71
2023/04/04 00:57:18;;;;;;;1.13;0.90;;;19.00;72.60;;;;;;5090642;28;20029;-71
2023/04/04 00:59:43;;;;;;;1.08;0.70;;;19.00;72.70;;;;;;5073629;28;20489;-71
2023/04/04 01:02:09;;;;;;;1.58;0.82;;;19.00;72.70;;;;;;5073875;28;20029;-71
2023/04/04 01:04:35;;;;;;;0.80;0.80;;;19.00;72.80;;;;;;5073526;28;20025;-71
2023/04/04 01:07:00;;;;;;;1.77;0.88;;;19.00;72.80;;;;;;5090416;28;20027;-71
2023/04/04 01:09:26;;;;;;;0.80;0.70;;;18.90;72.90;;;;;;5057256;28;20049;-71
2023/04/04 01:11:52;;;;;;;0.80;0.73;;;18.90;72.90;;;;;;5056909;28;20017;-71
2023/04/04 01:14:18;;;;;;;1.88;0.80;;;18.90;73.00;;;;;;5057204;28;20047;-71
2023/04/04 01:16:43;;;;;;;0.50;0.50;;;18.90;73.10;;;;;;5057083;28;20024;-71
2023/04/04 01:19:13;;;;;;;1.02;0.85;;;18.90;73.20;;;;;;5056825;28;20053;-71
2023/04/04 01:21:38;;;;;;;1.00;0.95;;;18.80;73.10;;;;;;5057045;28;20104;-71
2023/04/04 01:24:04;;;;;;;0.73;0.73;;;18.80;73.20;;;;;;5055388;28;20493;-71
2023/04/04 01:26:30;;;;;;;0.80;0.80;;;18.80;73.20;;;;;;5053878;28;20052;-71
2023/04/04 01:28:56;;;;;;;1.70;0.90;;;18.80;73.30;;;;;;5053673;28;20501;-70
2023/04/04 01:31:36;;;;;;;0.70;0.70;;;18.70;73.20;;;;;;5053672;28;20021;-71
2023/04/04 01:34:11;;;;;;;0.80;0.80;;;18.80;73.50;;;;;;5036753;28;20025;-70
2023/04/04 01:36:59;;;;;;;0.73;0.73;;;18.70;73.50;;;;;;5053731;28;20397;-71
2023/04/04 01:39:48;;;;;;;0.80;0.80;;;18.70;73.60;;;;;;5053592;28;20405;-71
2023/04/04 01:42:14;;;;;;;0.75;0.75;;;18.70;73.80;;;;;;5053574;28;20108;-72
2023/04/04 01:44:40;;;;;;;1.05;0.80;;;18.70;73.80;;;;;;5053146;28;20120;-71
2023/04/04 01:47:07;;;;;;;0.90;0.70;;;18.70;73.80;;;;;;5053320;28;20025;-71
2023/04/04 01:49:33;;;;;;;2.60;0.90;;;18.70;74.00;;;;;;5053280;28;20013;-71
2023/04/04 01:51:59;;;;;;;0.90;0.90;;;18.70;74.10;;;;;;5053037;28;20036;-71
2023/04/04 01:54:27;;;;;;;0.70;0.70;;;18.60;74.10;;;;;;5053247;28;20135;-71
2023/04/04 01:56:52;;;;;;;2.08;0.85;;;18.60;74.20;;;;;;5054424;28;20028;-71
2023/04/04 01:59:18;;;;;;;2.05;0.80;;;18.60;74.20;;;;;;5054188;28;20032;-71
2023/04/04 02:01:44;;;;;;;1.27;0.90;;;18.60;74.20;;;;;;5053233;28;20028;-71
2023/04/04 02:04:13;;;;;;;1.35;0.90;;;18.60;74.30;;;;;;5052789;28;20117;-71
2023/04/04 02:06:39;;;;;;;1.25;0.90;;;18.50;74.40;;;;;;5052215;28;20025;-71
2023/04/04 02:09:05;;;;;;;1.95;0.90;;;18.50;74.40;;;;;;5066113;28;20071;-71
2023/04/04 02:11:31;;;;;;;1.10;1.00;;;18.50;74.50;;;;;;5049578;28;20104;-71
2023/04/04 02:13:57;;;;;;;1.10;1.00;;;18.50;74.60;;;;;;5032873;28;20022;-71
2023/04/04 02:16:23;;;;;;;0.80;0.80;;;18.50;74.70;;;;;;5049475;28;20108;-71
2023/04/04 02:18:48;;;;;;;1.23;0.90;;;18.50;74.80;;;;;;5049273;28;20036;-71
2023/04/04 02:21:14;;;;;;;1.30;0.85;;;18.50;74.80;;;;;;5033992;28;20504;-71
2023/04/04 02:23:40;;;;;;;3.10;0.68;;;18.40;74.70;;;;;;5066120;28;20048;-71
2023/04/04 02:26:05;;;;;;;0.90;0.80;;;18.40;74.80;;;;;;5033662;28;20033;-71
2023/04/04 02:28:31;;;;;;;1.20;0.85;;;18.40;74.80;;;;;;5065864;28;20036;-71
2023/04/04 02:31:03;;;;;;;0.80;0.80;;;18.40;74.80;;;;;;5065811;28;20052;-71
2023/04/04 02:33:29;;;;;;;2.67;0.80;;;18.40;74.80;;;;;;5048705;28;20096;-71
2023/04/04 02:35:58;;;;;;;1.00;0.90;;;18.40;74.90;;;;;;5065083;28;20535;-71
2023/04/04 02:38:25;;;;;;;1.20;0.70;;;18.40;74.90;;;;;;5065777;28;20026;-71
2023/04/04 02:40:51;;;;;;;0.95;0.88;;;18.40;74.90;;;;;;5065358;28;20025;-71
2023/04/04 02:43:16;;;;;;;1.23;0.80;;;18.40;74.90;;;;;;5065360;28;20087;-71
2023/04/04 02:45:42;;;;;;;2.30;1.00;;;18.30;74.80;;;;;;5063226;28;20374;-71
2023/04/04 02:48:09;;;;;;;1.85;0.80;;;18.30;74.90;;;;;;5052012;28;20492;-71
2023/04/04 02:50:35;;;;;;;1.65;0.90;;;18.30;74.90;;;;;;5053422;28;20017;-71
2023/04/04 02:53:01;;;;;;;1.00;0.80;;;18.30;75.00;;;;;;5051969;28;20052;-71
2023/04/04 02:55:27;;;;;;;1.20;0.90;;;18.30;74.90;;;;;;5052306;28;20107;-71
2023/04/04 02:57:52;;;;;;;1.02;0.70;;;18.30;74.90;;;;;;5051989;28;20100;-71
2023/04/04 03:00:19;;;;;;;0.80;0.80;;;18.20;74.90;;;;;;5035285;28;20029;-71
2023/04/04 03:02:45;;;;;;;1.15;1.00;;;18.30;74.90;;;;;;5053155;28;20032;-71
2023/04/04 03:05:10;;;;;;;0.80;0.80;;;18.20;74.90;;;;;;5051533;28;20107;-70
2023/04/04 03:07:37;;;;;;;2.58;0.70;;;18.20;75.00;;;;;;5053215;28;20059;-71
2023/04/04 03:10:03;;;;;;;0.90;0.90;;;18.20;74.90;;;;;;5051780;28;20028;-71
2023/04/04 03:12:28;;;;;;;1.45;0.93;;;18.20;75.00;;;;;;5053018;28;20021;-71
2023/04/04 03:14:54;;;;;;;0.80;0.80;;;18.20;75.00;;;;;;5052612;28;20108;-71
2023/04/04 03:17:19;;;;;;;1.08;0.80;;;18.20;74.90;;;;;;5052906;28;20029;-71
2023/04/04 03:19:45;;;;;;;1.23;0.70;;;18.20;74.90;;;;;;5051770;28;20064;-71
2023/04/04 03:22:11;;;;;;;1.33;1.17;;;18.20;74.90;;;;;;5052747;28;20100;-71
2023/04/04 03:24:37;;;;;;;1.23;1.00;;;18.10;75.00;;;;;;5051496;28;20033;-71
2023/04/04 03:27:02;;;;;;;0.80;0.80;;;18.10;74.90;;;;;;5052679;28;20072;-71
2023/04/04 03:29:28;;;;;;;0.70;0.70;;;18.10;74.80;;;;;;5051351;28;20486;-71
2023/04/04 03:31:53;;;;;;;1.20;1.10;;;18.10;74.90;;;;;;5052698;28;20021;-71
2023/04/04 03:34:19;;;;;;;1.33;0.90;;;18.10;74.90;;;;;;5052553;28;20029;-71
2023/04/04 03:36:48;;;;;;;1.70;1.00;;;18.10;75.10;;;;;;5051609;28;20091;-71
2023/04/04 03:39:13;;;;;;;0.90;0.90;;;18.10;75.00;;;;;;5051113;28;20453;-71
2023/04/04 03:41:39;;;;;;;2.00;1.10;;;18.00;75.00;;;;;;5051404;28;20059;-71
2023/04/04 03:44:05;;;;;;;1.25;0.90;;;18.00;75.00;;;;;;5050590;28;20489;-71
2023/04/04 03:46:31;;;;;;;1.00;0.82;;;18.00;75.00;;;;;;5030770;28;20049;-71
2023/04/04 03:48:56;;;;;;;1.95;0.90;;;18.00;75.00;;;;;;5014397;28;20056;-71
2023/04/04 03:51:23;;;;;;;0.82;0.82;;;18.00;75.00;;;;;;5032239;28;20056;-71
2023/04/04 03:53:49;;;;;;;0.80;0.80;;;18.00;75.10;;;;;;5031091;28;20045;-71
2023/04/04 03:56:15;;;;;;;1.15;1.05;;;18.00;75.20;;;;;;5031195;28;20083;-71
2023/04/04 03:58:40;;;;;;;1.02;1.02;;;18.00;75.10;;;;;;5014478;28;20038;-71
2023/04/04 04:01:06;;;;;;;1.17;1.08;;;18.00;75.20;;;;;;5032136;28;20085;-71
2023/04/04 04:03:31;;;;;;;0.93;0.93;;;18.00;75.20;;;;;;5031136;28;20037;-71
2023/04/04 04:05:58;;;;;;;0.80;0.80;;;18.00;75.10;;;;;;5031094;28;20037;-71
2023/04/04 04:08:24;;;;;;;1.00;0.98;;;17.90;75.10;;;;;;5042990;28;20091;-71
2023/04/04 04:10:50;;;;;;;0.88;0.80;;;17.90;75.20;;;;;;5047708;28;20057;-71
2023/04/04 04:13:15;;;;;;;1.00;0.88;;;17.90;75.20;;;;;;5030696;28;20041;-71
2023/04/04 04:15:41;;;;;;;1.40;1.00;;;17.90;75.20;;;;;;5032277;28;20107;-71
2023/04/04 04:18:07;;;;;;;2.35;0.70;;;17.90;75.20;;;;;;5030805;28;20037;-71
2023/04/04 04:20:32;;;;;;;1.75;0.90;;;17.90;75.20;;;;;;5032059;28;20596;-71
2023/04/04 04:22:58;;;;;;;1.80;1.05;;;17.90;75.20;;;;;;5031155;28;20041;-71
2023/04/04 04:25:23;;;;;;;0.70;0.70;;;17.80;75.20;;;;;;5031680;28;20037;-71
2023/04/04 04:27:49;;;;;;;0.80;0.80;;;17.80;75.30;;;;;;5030873;28;20425;-71
2023/04/04 04:30:15;;;;;;;1.20;0.98;;;17.80;75.20;;;;;;5032100;28;20028;-71
2023/04/04 04:32:41;;;;;;;0.95;0.93;;;17.80;75.30;;;;;;5030850;28;20022;-71
2023/04/04 04:35:07;;;;;;;1.00;1.00;;;17.80;75.20;;;;;;5031891;28;20079;-71
2023/04/04 04:37:33;;;;;;;1.45;1.20;;;17.80;75.20;;;;;;5047535;28;20030;-71
2023/04/04 04:40:00;;;;;;;1.00;0.90;;;17.80;75.20;;;;;;5030772;28;20076;-71
2023/04/04 04:42:26;;;;;;;0.93;0.90;;;17.70;75.20;;;;;;5031660;28;20026;-71
2023/04/04 04:44:52;;;;;;;1.15;1.08;;;17.70;75.30;;;;;;5039480;28;20078;-71
2023/04/04 04:47:17;;;;;;;0.85;0.85;;;17.70;75.20;;;;;;5051663;28;20444;-71
2023/04/04 04:49:46;;;;;;;0.98;0.98;;;17.70;75.30;;;;;;5051844;28;20025;-71
2023/04/04 04:52:12;;;;;;;1.58;1.17;;;17.70;75.30;;;;;;5050399;28;20441;-70
2023/04/04 04:54:38;;;;;;;2.72;0.95;;;17.70;75.30;;;;;;5033766;28;20060;-71
2023/04/04 04:57:03;;;;;;;1.90;0.95;;;17.70;75.30;;;;;;5051353;28;20543;-71
2023/04/04 04:59:29;;;;;;;1.10;1.00;;;17.60;75.30;;;;;;5052818;28;20404;-71
2023/04/04 05:01:55;;;;;;;1.15;0.95;;;17.60;75.30;;;;;;5054305;28;20032;-71
2023/04/04 05:04:21;;;;;;;1.05;0.95;;;17.60;75.30;;;;;;5055268;28;20100;-71
2023/04/04 05:06:47;;;;;;;1.08;0.98;;;17.60;75.30;;;;;;5053527;28;20033;-71
2023/04/04 05:09:13;;;;;;;1.10;1.00;;;17.60;75.30;;;;;;5035304;28;20022;-71
2023/04/04 05:15:01;;;;;;;1.13;0.90;;;17.60;75.40;;;;;;5035607;28;20452;-71
2023/04/04 05:17:26;;;;;;;1.35;1.00;;;17.60;75.50;;;;;;5067316;28;20470;-71
2023/04/04 05:19:52;;;;;;;1.10;0.90;;;17.60;75.60;;;;;;5035142;28;20026;-71
2023/04/04 05:22:17;;;;;;;0.80;0.80;;;17.50;75.60;;;;;;5034968;28;20026;-71
2023/04/04 05:24:43;;;;;;;1.17;1.00;;;17.50;75.60;;;;;;5066969;28;20022;-71
2023/04/04 05:27:09;;;;;;;2.13;1.00;;;17.60;75.70;;;;;;5050317;28;20048;-71
2023/04/04 05:29:34;;;;;;;2.30;0.80;;;17.50;75.60;;;;;;5035213;28;20021;-71
2023/04/04 05:32:00;;;;;;;1.00;0.90;;;17.50;75.60;;;;;;5067013;28;20022;-71
2023/04/04 05:34:26;;;;;;;2.58;0.85;;;17.50;75.60;;;;;;5033583;28;20025;-71
2023/04/04 05:36:52;;;;;;;1.25;1.15;;;17.50;75.60;;;;;;5066992;28;20022;-71
2023/04/04 05:39:17;;;;;;;1.10;1.00;;;17.50;75.70;;;;;;5034634;28;20017;-70
2023/04/04 05:41:43;;;;;;;1.27;1.20;;;17.50;74.50;;;;;;5032924;28;20029;-71
2023/04/04 05:44:08;;;;;;;1.23;1.13;;;17.50;74.10;;;;;;5050994;28;20026;-71
2023/04/04 05:46:34;;;;;;;0.98;0.98;;;17.40;73.60;;;;;;5053462;28;20040;-70
2023/04/04 05:49:00;;;;;;;1.35;1.23;;;17.40;73.70;;;;;;5053409;28;20021;-70
2023/04/04 05:51:25;;;;;;;2.60;1.33;;;17.40;73.80;;;;;;5053176;28;20021;-70
2023/04/04 05:53:51;;;;;;;1.40;1.30;;;17.30;73.50;;;;;;5053171;28;20095;-71
2023/04/04 05:56:17;;;;;;;1.20;1.10;;;17.40;73.20;;;;;;5052808;28;20029;-71
2023/04/04 05:58:43;;;;;;;1.30;1.20;;;17.30;73.10;;;;;;5053361;28;20408;-71
2023/04/04 06:01:09;;;;;;;2.35;1.50;;;17.40;73.10;;;;;;5054261;28;20447;-71
2023/04/04 06:03:35;;;;;;;2.63;1.23;;;17.30;72.80;;;;;;5053110;28;20024;-71
2023/04/04 06:06:04;;;;;;;1.33;1.20;;;17.30;72.90;;;;;;5054731;28;20025;-71
2023/04/04 06:08:30;;;;;;;3.28;1.20;;;17.30;72.80;;;;;;5036941;28;20029;-71
2023/04/04 06:10:56;;;;;;;1.35;1.25;;;17.20;72.70;;;;;;5048672;28;20021;-71
2023/04/04 06:13:21;;;;;;;1.45;1.20;;;17.30;72.70;;;;;;5049370;28;20075;-71
2023/04/04 06:15:47;;;;;;;1.38;1.20;;;17.30;72.60;;;;;;5066046;28;20025;-70
2023/04/04 06:18:13;;;;;;;1.52;1.42;;;17.20;72.60;;;;;;5066219;28;20108;-71
2023/04/04 06:20:38;;;;;;;1.30;1.20;;;17.20;72.50;;;;;;5049334;28;20113;-71
2023/04/04 06:23:04;;;;;;;3.30;1.13;;;17.20;72.50;;;;;;5033925;28;20033;-71
2023/04/04 06:25:30;;;;;;;2.10;1.45;;;17.20;72.60;;;;;;5033196;28;20179;-71
2023/04/04 06:27:56;;;;;;;4.53;1.52;;;17.20;72.60;;;;;;5048279;28;20025;-71
2023/04/04 06:30:22;;;;;;;2.08;1.42;;;17.10;72.70;;;;;;5065597;28;20013;-71
2023/04/04 06:32:48;;;;;;;1.70;1.33;;;17.10;72.80;;;;;;5033838;28;20024;-71
2023/04/04 06:35:14;;;;;;;1.88;1.48;;;17.10;72.80;;;;;;5033589;28;20017;-71
2023/04/04 06:37:39;;;;;;;1.58;1.25;;;17.10;72.90;;;;;;5048980;28;20033;-71
2023/04/04 06:40:06;;;;;;;1.40;1.17;;;17.10;73.00;;;;;;5065593;28;20431;-71
2023/04/04 06:42:32;;;;;;;1.45;1.33;;;17.10;73.00;;;;;;5033503;28;20104;-71
2023/04/04 06:44:57;;;;;;;1.42;1.30;;;17.10;73.10;;;;;;5073775;28;20112;-70
2023/04/04 06:47:23;;;;;;;3.78;1.50;;;17.00;73.10;;;;;;5051803;28;20067;-71
2023/04/04 06:49:48;;;;;;;3.00;1.50;;;17.00;73.20;;;;;;5068595;28;20025;-71
2023/04/04 06:52:14;;;;;;;1.80;1.60;;;17.00;73.10;;;;;;5053207;28;20037;-71
2023/04/04 06:54:40;;;;;;;1.95;1.50;;;17.00;73.10;;;;;;5068493;28;20031;-70
2023/04/04 06:57:05;;;;;;;3.05;1.60;;;17.00;73.10;;;;;;5085611;28;20481;-70
2023/04/04 06:59:31;;;;;;;1.40;1.30;;;17.00;73.10;;;;;;5052080;28;20401;-70
2023/04/04 07:01:57;;;;;;;2.45;1.60;;;17.00;73.10;;;;;;5085362;28;20081;-70
2023/04/04 07:04:23;;;;;;;1.70;1.20;;;17.00;73.00;;;;;;5085227;28;20017;-71
2023/04/04 07:06:48;;;;;;;1.50;1.40;;;17.00;73.00;;;;;;5053129;28;20477;-71
2023/04/04 07:09:14;;;;;;;1.63;1.48;;;17.00;73.00;;;;;;5052927;28;20013;-71
2023/04/04 07:11:39;;;;;;;2.63;1.40;;;17.00;73.00;;;;;;5051723;28;20504;-70
2023/04/04 07:14:05;;;;;;;1.70;1.40;;;17.00;73.00;;;;;;5051778;28;20032;-70
2023/04/04 07:16:31;;;;;;;1.35;1.23;;;17.00;73.00;;;;;;5051501;28;20055;-71
2023/04/04 07:18:56;;;;;;;1.85;1.50;;;17.00;73.00;;;;;;5051842;28;20124;-70
2023/04/04 07:21:23;;;;;;;1.83;1.50;;;17.00;72.90;;;;;;5051288;28;20471;-70
2023/04/04 07:23:49;;;;;;;2.13;1.45;;;16.90;73.80;;;;;;5052763;28;20425;-71
2023/04/04 07:26:15;;;;;;;4.85;1.50;;;17.00;72.90;;;;;;5051386;28;20024;-70
2023/04/04 07:28:41;;;;;;;1.85;1.65;;;16.90;72.80;;;;;;5052622;28;20507;-70
2023/04/04 07:31:07;;;;;;;1.60;1.50;;;16.90;72.80;;;;;;5052525;28;20025;-71
2023/04/04 07:33:32;;;;;;;1.73;1.42;;;16.90;72.80;;;;;;5051428;28;20104;-70
2023/04/04 07:36:00;;;;;;;1.80;1.70;;;16.90;72.80;;;;;;5051244;28;20120;-70
2023/04/04 07:38:26;;;;;;;2.03;1.55;;;16.90;72.70;;;;;;5051036;28;20040;-71
2023/04/04 07:40:52;;;;;;;3.25;1.60;;;16.90;72.80;;;;;;5052648;28;20025;-71
2023/04/04 07:43:18;;;;;;;3.17;1.73;;;16.90;72.80;;;;;;5052305;28;20050;-71
2023/04/04 07:45:43;;;;;;;3.05;1.70;;;16.90;72.70;;;;;;5050751;28;20040;-70
2023/04/04 07:48:09;;;;;;;2.30;1.60;;;16.90;72.70;;;;;;5052436;28;20064;-70
2023/04/04 07:50:35;;;;;;;1.90;1.75;;;16.90;72.70;;;;;;5050850;28;20021;-70
2023/04/04 07:53:00;;;;;;;1.95;1.50;;;16.80;72.70;;;;;;5051081;28;20045;-70
2023/04/04 07:55:26;;;;;;;2.88;1.65;;;16.80;72.80;;;;;;5050856;28;20032;-71
2023/04/04 07:57:52;;;;;;;1.92;1.35;;;16.80;72.70;;;;;;5051046;28;20519;-70
2023/04/04 08:00:20;;;;;;;1.70;1.60;;;16.80;72.70;;;;;;5051215;28;20031;-70
2023/04/04 08:02:50;;;;;;;1.80;1.33;;;16.80;72.60;;;;;;5051035;28;20033;-70
2023/04/04 08:05:16;;;;;;;1.60;1.50;;;16.80;72.70;;;;;;5050784;28;20021;-71
2023/04/04 08:07:41;;;;;;;2.10;1.58;;;16.80;72.70;;;;;;5041360;28;20022;-70
2023/04/04 08:10:08;;;;;;;3.70;1.48;;;16.80;72.70;;;;;;5032382;28;20394;-71
2023/04/04 08:12:33;;;;;;;1.50;1.40;;;16.80;72.70;;;;;;5064144;28;20068;-70
2023/04/04 08:14:59;;;;;;;1.63;1.52;;;16.70;72.60;;;;;;5064482;28;20457;-71
2023/04/04 08:17:25;;;;;;;1.58;1.48;;;16.70;72.60;;;;;;5047472;28;20036;-70
2023/04/04 08:19:51;;;;;;;1.70;1.60;;;16.70;72.60;;;;;;5063849;28;20436;-71
2023/04/04 08:22:17;;;;;;;1.45;1.35;;;16.70;72.70;;;;;;5032122;28;20057;-70
2023/04/04 08:24:43;;;;;;;3.00;1.63;;;16.70;72.60;;;;;;5031811;28;20120;-71
2023/04/04 08:27:09;;;;;;;2.15;1.42;;;16.70;72.60;;;;;;5063966;28;20026;-70
2023/04/04 08:29:35;;;;;;;1.45;1.35;;;16.70;72.70;;;;;;5047259;28;20573;-70
2023/04/04 08:32:00;;;;;;;1.90;1.60;;;16.70;72.60;;;;;;5063974;28;20021;-71
2023/04/04 08:34:26;;;;;;;1.63;1.52;;;16.70;72.70;;;;;;5065853;28;20040;-70
2023/04/04 08:36:52;;;;;;;1.70;1.60;;;16.60;72.60;;;;;;5036229;28;20021;-70
2023/04/04 08:39:18;;;;;;;1.58;1.30;;;16.70;72.70;;;;;;5034614;28;20447;-70
2023/04/04 08:41:44;;;;;;;2.65;1.85;;;16.70;72.70;;;;;;5067983;28;20021;-70
2023/04/04 08:44:16;;;;;;;1.50;1.38;;;16.60;72.60;;;;;;5037200;28;20481;-70
2023/04/04 08:46:42;;;;;;;1.58;1.48;;;16.60;73.70;;;;;;5055538;28;20554;-70
2023/04/04 08:49:08;;;;;;;1.40;1.30;;;16.60;72.60;;;;;;5070758;28;20610;-70
2023/04/04 08:51:33;;;;;;;1.50;1.40;;;16.60;72.60;;;;;;5071047;28;20108;-70
2023/04/04 08:53:59;;;;;;;1.90;1.73;;;16.60;72.60;;;;;;5070959;28;20132;-70
2023/04/04 08:56:25;;;;;;;2.33;1.70;;;16.60;72.70;;;;;;5087793;28;20025;-70
2023/04/04 08:58:50;;;;;;;1.40;1.30;;;16.60;72.60;;;;;;5070788;28;20059;-71
2023/04/04 09:01:16;;;;;;;1.27;1.17;;;16.60;72.70;;;;;;5055464;28;20481;-70
2023/04/04 09:03:42;;;;;;;1.73;1.63;;;16.60;72.70;;;;;;5070540;28;20025;-70
2023/04/04 09:06:07;;;;;;;1.23;1.13;;;16.60;72.70;;;;;;5070818;28;20106;-70
2023/04/04 09:08:33;;;;;;;1.77;1.67;;;16.60;72.70;;;;;;5054210;28;20540;-70
2023/04/04 09:11:01;;;;;;;1.80;1.65;;;16.60;72.70;;;;;;5067453;28;20025;-70
2023/04/04 09:13:27;;;;;;;2.00;1.55;;;16.60;72.70;;;;;;5066871;28;20438;-70
2023/04/04 09:15:53;;;;;;;1.58;1.48;;;16.60;72.70;;;;;;5050641;28;20072;-70
2023/04/04 09:18:18;;;;;;;2.20;1.40;;;16.60;72.70;;;;;;5050493;28;20025;-70
2023/04/04 09:20:45;;;;;;;1.50;1.38;;;16.60;72.70;;;;;;5035131;28;20033;-70
2023/04/04 09:23:14;;;;;;;2.95;1.90;;;16.60;72.70;;;;;;5050361;28;20017;-70
2023/04/04 09:25:47;;;;;;;1.50;1.40;;;16.60;72.70;;;;;;5067076;28;20080;-70
2023/04/04 09:28:16;;;;;;;1.45;1.30;;;16.60;72.70;;;;;;5035020;28;20486;-71
2023/04/04 09:30:43;;;;;;;1.50;1.40;;;16.60;72.70;;;;;;5049865;28;20026;-70
2023/04/04 09:33:10;;;;;;;1.40;1.30;;;16.50;72.70;;;;;;5066490;28;20639;-71
2023/04/04 09:35:37;;;;;;;1.30;1.20;;;16.50;72.70;;;;;;5066910;28;20382;-70
2023/04/04 09:38:06;;;;;;;1.30;1.20;;;16.60;72.70;;;;;;5050108;28;20018;-70
2023/04/04 09:40:33;;;;;;;1.40;1.30;;;16.60;72.70;;;;;;5049735;28;20045;-70
2023/04/04 09:42:59;;;;;;;3.10;1.20;;;16.50;72.70;;;;;;5049998;28;20401;-70
2023/04/04 09:45:25;;;;;;;1.30;1.20;;;16.50;72.70;;;;;;5076965;28;20036;-70
2023/04/04 09:47:51;;;;;;;2.20;1.40;;;16.50;72.70;;;;;;5054339;28;20036;-71
2023/04/04 09:50:22;;;;;;;2.08;1.20;;;16.50;72.60;;;;;;5087016;28;20029;-70
2023/04/04 09:52:48;;;;;;;1.20;1.10;;;16.50;72.70;;;;;;5069483;28;20045;-70
2023/04/04 09:55:14;;;;;;;1.25;1.15;;;16.50;72.70;;;;;;5086554;28;20029;-70
2023/04/04 09:57:40;;;;;;;1.50;1.30;;;16.50;72.70;;;;;;5069755;28;20032;-70
2023/04/04 10:00:10;;;;;;;1.65;1.30;;;16.50;72.70;;;;;;5069865;28;20029;-71
2023/04/04 10:02:40;;;;;;;1.95;1.30;;;16.50;72.70;;;;;;5054087;28;20017;-70
2023/04/04 10:05:09;;;;;;;1.30;1.20;;;16.50;72.80;;;;;;5069548;28;20130;-70
2023/04/04 10:07:38;;;;;;;1.65;1.40;;;16.50;72.70;;;;;;5086337;28;20017;-70
2023/04/04 10:10:07;;;;;;;1.63;1.17;;;16.50;72.70;;;;;;5036345;28;20082;-71
2023/04/04 10:12:34;;;;;;;1.20;1.10;;;16.50;72.80;;;;;;5052891;28;20009;-70
2023/04/04 10:15:00;;;;;;;1.48;1.23;;;16.40;72.60;;;;;;5052934;28;20029;-70
2023/04/04 10:17:40;;;;;;;0.90;0.90;;;16.50;72.80;;;;;;5052703;28;20075;-70
2023/04/04 10:20:07;;;;;;;1.42;1.05;;;16.50;72.70;;;;;;5052923;28;20056;-70
2023/04/04 10:22:34;;;;;;;1.20;0.93;;;16.50;72.80;;;;;;5052655;28;20059;-70
2023/04/04 10:25:00;;;;;;;2.05;1.20;;;16.50;72.70;;;;;;5052812;28;20082;-71
2023/04/04 10:27:26;;;;;;;1.20;1.10;;;16.40;72.70;;;;;;5052684;28;20025;-71
2023/04/04 10:29:51;;;;;;;1.27;1.10;;;16.50;72.80;;;;;;5053638;28;20060;-70
2023/04/04 10:32:41;;;;;;;1.30;1.20;;;16.50;72.80;;;;;;5052515;28;20021;-70
2023/04/04 10:35:09;;;;;;;1.42;1.25;;;16.50;72.80;;;;;;5053752;28;20029;-71
2023/04/04 10:37:39;;;;;;;1.98;1.30;;;16.40;72.70;;;;;;5053723;28;20063;-70
2023/04/04 10:40:14;;;;;;;0.80;0.80;;;16.50;72.80;;;;;;5052394;28;20029;-71
2023/04/04 10:42:46;;;;;;;1.02;0.95;;;16.40;72.80;;;;;;5052276;28;20028;-70
2023/04/04 10:45:15;;;;;;;1.00;1.00;;;16.40;72.70;;;;;;5051961;28;20058;-70
2023/04/04 10:47:42;;;;;;;0.80;0.80;;;16.40;72.70;;;;;;5052066;28;20644;-71
2023/04/04 10:50:10;;;;;;;1.13;1.02;;;16.40;72.70;;;;;;5068884;28;20017;-70
2023/04/04 10:52:37;;;;;;;0.90;0.90;;;16.50;72.80;;;;;;5053134;28;20045;-70
2023/04/04 10:55:11;;;;;;;1.30;1.20;;;16.40;72.70;;;;;;5068833;28;20489;-70
2023/04/04 10:57:49;;;;;;;1.92;1.02;;;16.40;72.80;;;;;;5068234;28;20532;-70
2023/04/04 11:00:17;;;;;;;2.08;0.98;;;16.40;72.70;;;;;;5066939;28;20016;-70
2023/04/04 11:02:46;;;;;;;5.75;1.20;;;16.40;72.70;;;;;;5053000;28;20556;-70
2023/04/04 11:05:17;;;;;;;1.10;1.00;;;16.50;72.90;;;;;;5085224;28;20025;-71
2023/04/04 11:07:44;;;;;;;1.10;1.00;;;16.40;72.80;;;;;;5075850;28;20041;-70
2023/04/04 11:10:30;;;;;;;1.10;1.00;;;16.40;72.80;;;;;;5031774;28;20104;-70
2023/04/04 11:13:03;;;;;;;2.85;1.10;;;16.40;72.80;;;;;;5062461;28;20370;-70
2023/04/04 11:15:29;;;;;;;1.15;1.00;;;16.40;72.80;;;;;;5063153;28;20022;-70
2023/04/04 11:17:57;;;;;;;0.85;0.85;;;16.40;72.80;;;;;;5047996;28;20393;-70
2023/04/04 11:20:30;;;;;;;0.80;0.80;;;16.40;72.80;;;;;;5048158;28;20010;-70
2023/04/04 11:23:18;;;;;;;1.10;0.95;;;16.40;72.80;;;;;;5033046;28;20021;-70
2023/04/04 11:25:53;;;;;;;0.98;0.98;;;16.40;72.90;;;;;;5046921;28;20021;-70
2023/04/04 11:28:26;;;;;;;1.40;1.00;;;16.40;72.90;;;;;;5064566;28;20033;-70
2023/04/04 11:31:19;;;;;;;0.95;0.90;;;16.40;72.90;;;;;;5077958;28;20013;-70
2023/04/04 11:34:11;;;;;;;0.90;0.90;;;16.40;72.90;;;;;;5052535;28;20025;-70
2023/04/04 11:36:36;;;;;;;0.80;0.80;;;16.40;72.90;;;;;;5034668;28;20025;-70
2023/04/04 11:39:09;;;;;;;1.40;0.85;;;16.40;72.90;;;;;;5051123;28;20033;-70
2023/04/04 11:41:47;;;;;;;;;;;16.40;72.90;;;;;;5051737;28;20064;-70
2023/04/04 11:44:13;;;;;;;1.60;0.80;;;16.40;72.80;;;;;;5052208;28;19905;-70
2023/04/04 11:46:39;;;;;;;1.35;1.10;;;16.40;72.90;;;;;;5034310;28;20399;-70
2023/04/04 11:49:05;;;;;;;1.00;0.90;;;16.40;72.90;;;;;;5051202;28;20032;-71
2023/04/04 11:51:31;;;;;;;0.98;0.88;;;16.40;72.90;;;;;;5051334;28;20029;-70
2023/04/04 11:53:57;;;;;;;0.90;0.90;;;16.40;72.90;;;;;;5034402;28;20079;-70
2023/04/04 11:56:23;;;;;;;2.53;1.05;;;16.40;72.90;;;;;;5034720;28;20057;-70
2023/04/04 11:58:50;;;;;;;1.40;0.80;;;16.40;72.90;;;;;;5034496;28;20060;-70
2023/04/04 12:01:17;;;;;;;1.60;0.90;;;16.40;72.90;;;;;;5034389;28;20017;-70
2023/04/04 12:03:42;;;;;;;0.80;0.80;;;16.40;72.90;;;;;;5050858;28;20056;-71
2023/04/04 12:06:10;;;;;;;0.70;0.70;;;16.40;73.00;;;;;;5050920;28;20052;-70
2023/04/04 12:08:36;;;;;;;1.00;0.90;;;16.40;73.00;;;;;;5050091;28;20127;-70
2023/04/04 12:11:08;;;;;;;0.95;0.88;;;16.40;73.00;;;;;;5050972;28;20044;-70
2023/04/04 12:13:33;;;;;;;0.70;0.70;;;16.40;73.00;;;;;;5050837;28;20025;-71
2023/04/04 12:15:59;;;;;;;1.55;0.90;;;16.40;73.00;;;;;;5034200;28;20491;-70
2023/04/04 12:18:26;;;;;;;0.88;0.88;;;16.40;73.00;;;;;;5051054;28;20447;-70
2023/04/04 12:20:52;;;;;;;1.40;0.88;;;16.40;73.00;;;;;;5050838;28;20028;-70
2023/04/04 12:23:18;;;;;;;0.93;0.93;;;16.40;73.00;;;;;;5050871;28;20029;-70
2023/04/04 12:25:46;;;;;;;0.95;0.82;;;16.40;73.00;;;;;;5050685;28;20024;-70
2023/04/04 12:28:12;;;;;;;0.95;0.93;;;16.40;73.00;;;;;;5050611;28;20021;-70
2023/04/04 12:30:38;;;;;;;0.82;0.82;;;16.40;72.90;;;;;;5033875;28;20026;-71
2023/04/04 12:33:03;;;;;;;0.98;0.93;;;16.40;73.00;;;;;;5050765;28;20465;-70
2023/04/04 12:35:30;;;;;;;0.98;0.85;;;16.40;73.00;;;;;;5050713;28;20039;-70
2023/04/04 12:38:01;;;;;;;1.27;0.90;;;16.40;73.00;;;;;;5040813;28;20383;-70
2023/04/04 12:40:36;;;;;;;1.20;0.88;;;16.40;73.00;;;;;;5046838;28;20021;-70
2023/04/04 12:43:15;;;;;;;1.15;0.90;;;16.40;73.00;;;;;;5063158;28;20030;-70
2023/04/04 12:45:41;;;;;;;1.35;1.00;;;16.40;73.00;;;;;;5047017;28;20026;-70
2023/04/04 12:48:12;;;;;;;1.45;0.93;;;16.40;73.00;;;;;;5047178;28;20029;-70
2023/04/04 12:50:57;;;;;;;0.80;0.80;;;16.40;73.00;;;;;;5046938;28;20021;-70